createdAt,value
2022-08-26T00:08:56.966Z,34.789
2022-08-26T00:23:59.192Z,35.444
2022-08-26T00:39:01.925Z,34.974
2022-08-26T00:54:05.346Z,37.108
2022-08-26T01:09:07.768Z,38.273
2022-08-26T01:24:10.320Z,39.853
2022-08-26T01:39:12.613Z,39.618
2022-08-26T01:54:14.856Z,39.936
2022-08-26T02:09:17.057Z,40.232
2022-08-26T02:24:19.233Z,40.636
2022-08-26T02:39:22.289Z,44.529
2022-08-26T02:54:24.692Z,44.009
2022-08-26T03:09:26.873Z,46.682
2022-08-26T03:24:29.184Z,46.111
2022-08-26T03:39:32.578Z,47.706
2022-08-26T03:54:34.865Z,45.685
2022-08-26T04:09:37.159Z,52.196
2022-08-26T04:24:39.673Z,52.723
2022-08-26T04:39:41.920Z,54.226
2022-08-26T04:54:44.146Z,57.494
2022-08-26T05:09:46.352Z,55.893
2022-08-26T05:24:48.541Z,58.642
2022-08-26T05:39:51.343Z,56.36
2022-08-26T05:54:53.790Z,57.886
2022-08-26T06:10:15.172Z,59.944
2022-08-26T06:25:31.060Z,59.856
2022-08-26T06:40:33.482Z,59.382
2022-08-26T06:55:37.408Z,58.462
2022-08-26T07:10:39.642Z,60.411
2022-08-26T07:25:42.177Z,59.305
2022-08-26T07:40:45.711Z,60.04
2022-08-26T07:55:47.895Z,60.123
2022-08-26T08:10:50.095Z,58.932
2022-08-26T08:25:52.317Z,60.359
2022-08-26T08:40:54.548Z,64.43
2022-08-26T08:55:56.754Z,64.841
2022-08-26T09:10:59.136Z,67.73
2022-08-26T09:26:01.360Z,63.505
2022-08-26T09:41:03.545Z,63.436
2022-08-26T09:56:07.451Z,64.196
2022-08-26T10:11:10.875Z,63.867
2022-08-26T10:26:13.106Z,63.031
2022-08-26T10:41:15.878Z,65.329
2022-08-26T10:56:19.441Z,66
2022-08-26T11:11:21.653Z,66.764
2022-08-26T11:26:36.259Z,63.493
2022-08-26T11:41:58.206Z,67.32
2022-08-26T11:57:02.870Z,68.868
2022-08-26T12:12:12.111Z,70.281
2022-08-26T12:27:14.455Z,68.075
2022-08-26T12:42:16.681Z,69.635
2022-08-26T12:57:18.886Z,66.916
2022-08-26T13:12:21.133Z,66.216
2022-08-26T13:27:23.323Z,69.895
2022-08-26T13:42:25.538Z,66.555
2022-08-26T13:57:27.739Z,73.923
2022-08-26T14:12:29.998Z,69.844
2022-08-26T14:27:32.235Z,48.413
2022-08-26T14:42:34.618Z,57.528
2022-08-26T14:57:36.848Z,60.037
2022-08-26T15:12:39.105Z,53.625
2022-08-26T15:27:41.327Z,51.94
2022-08-26T15:42:43.581Z,54.565
2022-08-26T15:57:49.837Z,57.843
2022-08-26T16:12:52.187Z,53.372
2022-08-26T16:27:54.387Z,55.085
2022-08-26T16:42:56.651Z,57.352
2022-08-26T16:57:58.850Z,57.204
2022-08-26T17:13:01.418Z,53.188
2022-08-26T17:28:03.619Z,52.453
2022-08-26T17:43:11.680Z,51.086
2022-08-26T17:58:14.931Z,49.402
2022-08-26T18:13:17.198Z,48.813
2022-08-26T18:28:19.416Z,48.669
2022-08-26T18:43:21.617Z,48.003
2022-08-26T18:58:23.855Z,45.935
2022-08-26T19:13:26.091Z,45.853
2022-08-26T19:28:28.315Z,45.07
2022-08-26T19:43:30.523Z,43.602
2022-08-26T19:58:34.436Z,42.286
2022-08-26T20:13:36.700Z,38.475
2022-08-26T20:28:39.013Z,35.956
2022-08-26T20:43:41.243Z,34.659
2022-08-26T20:58:43.479Z,35.601
2022-08-26T21:14:03.910Z,35.045
2022-08-26T21:29:06.963Z,37.075
2022-08-26T21:44:09.227Z,36.749
2022-08-26T21:59:11.483Z,35.84
2022-08-26T22:14:13.674Z,36.833
2022-08-26T22:29:15.873Z,36.647
2022-08-26T22:44:18.269Z,30.955
2022-08-26T22:59:20.527Z,29.081
2022-08-26T23:14:22.841Z,27.751
2022-08-26T23:29:25.078Z,28.368
2022-08-26T23:44:27.528Z,27.572
2022-08-26T23:59:29.757Z,26.858
